Time,TemperatureF,DewpointF,PressureIn,WindDirection,WindDirectionDegrees,WindSpeedMPH,WindSpeedGustMPH,Humidity,HourlyPrecipIn,Conditions,Clouds,dailyrainin,SoftwareType,DateUTC
2013-02-05 00:00:00,34.5,30.5,29.24,South,180,9.8,16.8,85,0.00,,,0.11,pywws,2013-02-05 00:00:00,
2013-02-05 00:10:00,34.3,30.3,29.25,WSW,248,5.4,9.8,85,0.00,,,0.00,pywws,2013-02-05 00:10:00,
2013-02-05 00:20:00,34.0,30.0,29.25,WSW,248,8.3,13.0,85,0.00,,,0.00,pywws,2013-02-05 00:20:00,
2013-02-05 00:30:00,33.8,29.8,29.25,West,270,6.0,10.7,85,0.00,,,0.00,pywws,2013-02-05 00:30:00,
2013-02-05 00:40:00,33.6,29.6,29.23,WSW,248,6.0,10.7,85,0.00,,,0.00,pywws,2013-02-05 00:40:00,
2013-02-05 00:50:00,33.6,29.6,29.23,WSW,248,6.0,11.4,85,0.00,,,0.00,pywws,2013-02-05 00:50:00,
2013-02-05 01:00:00,33.6,29.6,29.22,South,180,5.4,6.9,85,0.00,,,0.00,pywws,2013-02-05 01:00:00,
2013-02-05 01:10:00,33.6,29.9,29.21,WNW,292,3.8,9.8,86,0.00,,,0.00,pywws,2013-02-05 01:10:00,
2013-02-05 01:20:00,33.8,30.1,29.21,South,180,6.0,9.8,86,0.00,,,0.00,pywws,2013-02-05 01:20:00,
2013-02-05 01:30:00,33.8,30.1,29.21,West,270,8.3,13.6,86,0.00,,,0.00,pywws,2013-02-05 01:30:00,
2013-02-05 01:40:00,33.6,29.9,29.21,WSW,248,9.8,15.2,86,0.00,,,0.00,pywws,2013-02-05 01:40:00,
2013-02-05 01:50:00,33.6,29.9,29.21,NW,315,7.6,15.9,86,0.00,,,0.00,pywws,2013-02-05 01:50:00,
2013-02-05 02:00:00,33.6,29.9,29.22,WSW,248,8.3,14.5,86,0.00,,,0.00,pywws,2013-02-05 02:00:00,
2013-02-05 02:10:00,33.6,29.9,29.20,South,180,6.9,15.2,86,0.00,,,0.00,pywws,2013-02-05 02:10:00,
2013-02-05 02:20:00,33.6,29.9,29.20,WSW,248,6.0,10.7,86,0.00,,,0.00,pywws,2013-02-05 02:20:00,
2013-02-05 02:30:00,33.6,29.9,29.20,WSW,248,6.0,9.8,86,0.00,,,0.00,pywws,2013-02-05 02:30:00,
2013-02-05 02:40:00,33.6,29.9,29.20,WSW,248,6.9,10.7,86,0.00,,,0.00,pywws,2013-02-05 02:40:00,
2013-02-05 02:50:00,33.4,29.7,29.20,NW,315,6.9,10.7,86,0.00,,,0.00,pywws,2013-02-05 02:50:00,
2013-02-05 03:01:00,33.3,29.5,29.19,WSW,248,6.9,9.8,86,0.00,,,0.00,pywws,2013-02-05 03:01:00,
2013-02-05 03:10:00,33.3,29.5,29.18,SE,135,6.9,10.7,86,0.00,,,0.00,pywws,2013-02-05 03:10:00,
2013-02-05 03:20:00,33.3,29.5,29.18,West,270,8.3,12.1,86,0.00,,,0.00,pywws,2013-02-05 03:20:00,
2013-02-05 03:30:00,33.4,29.7,29.17,NW,315,6.9,13.0,86,0.00,,,0.00,pywws,2013-02-05 03:30:00,
2013-02-05 03:40:00,33.3,29.5,29.17,WSW,248,6.9,14.5,86,0.00,,,0.00,pywws,2013-02-05 03:40:00,
2013-02-05 03:50:00,33.3,29.5,29.17,West,270,5.4,9.8,86,0.00,,,0.00,pywws,2013-02-05 03:50:00,
2013-02-05 04:00:00,33.1,29.1,29.18,WSW,248,5.4,8.3,85,0.00,,,0.00,pywws,2013-02-05 04:00:00,
2013-02-05 04:10:00,33.1,29.1,29.17,WSW,248,5.4,8.3,85,0.00,,,0.00,pywws,2013-02-05 04:10:00,
2013-02-05 04:20:00,32.9,28.9,29.17,WSW,248,6.0,9.8,85,0.00,,,0.00,pywws,2013-02-05 04:20:00,
2013-02-05 04:30:00,33.1,29.1,29.16,WSW,248,5.4,9.2,85,0.00,,,0.00,pywws,2013-02-05 04:30:00,
2013-02-05 04:40:00,33.1,29.1,29.15,West,270,7.6,11.4,85,0.00,,,0.00,pywws,2013-02-05 04:40:00,
2013-02-05 04:50:00,33.3,29.2,29.15,WSW,248,6.9,9.8,85,0.00,,,0.00,pywws,2013-02-05 04:50:00,
2013-02-05 05:00:00,33.3,29.2,29.15,West,270,6.9,11.4,85,0.00,,,0.00,pywws,2013-02-05 05:00:00,
2013-02-05 05:10:00,33.3,29.2,29.15,WSW,248,9.2,14.5,85,0.00,,,0.00,pywws,2013-02-05 05:10:00,
2013-02-05 05:20:00,33.3,29.2,29.14,WSW,248,5.4,9.2,85,0.00,,,0.00,pywws,2013-02-05 05:20:00,
2013-02-05 05:30:00,33.4,29.4,29.14,WSW,248,7.6,11.4,85,0.00,,,0.00,pywws,2013-02-05 05:30:00,
2013-02-05 05:40:00,33.4,29.4,29.13,South,180,6.0,10.7,85,0.00,,,0.00,pywws,2013-02-05 05:40:00,
2013-02-05 05:50:00,33.3,29.2,29.13,WSW,248,5.4,10.7,85,0.00,,,0.00,pywws,2013-02-05 05:50:00,
2013-02-05 06:00:00,33.3,29.2,29.13,NNW,338,4.5,8.3,85,0.00,,,0.00,pywws,2013-02-05 06:00:00,
2013-02-05 06:10:00,33.1,29.1,29.13,WSW,248,5.4,9.8,85,0.00,,,0.00,pywws,2013-02-05 06:10:00,
2013-02-05 06:20:00,33.1,29.1,29.13,South,180,6.0,9.2,85,0.00,,,0.00,pywws,2013-02-05 06:20:00,
2013-02-05 06:30:00,33.1,29.1,29.13,NW,315,7.6,13.6,85,0.00,,,0.00,pywws,2013-02-05 06:30:00,
2013-02-05 06:40:00,33.3,29.2,29.12,NW,315,10.7,15.2,85,0.00,,,0.00,pywws,2013-02-05 06:40:00,
2013-02-05 06:50:00,33.4,29.4,29.13,WSW,248,6.9,10.7,85,0.00,,,0.00,pywws,2013-02-05 06:50:00,
2013-02-05 07:00:00,33.4,29.4,29.13,WNW,292,6.0,9.8,85,0.00,,,0.00,pywws,2013-02-05 07:00:00,
2013-02-05 07:10:00,33.4,29.4,29.13,NW,315,6.9,9.8,85,0.00,,,0.00,pywws,2013-02-05 07:10:00,
2013-02-05 07:20:00,33.6,29.6,29.12,WSW,248,7.6,12.1,85,0.00,,,0.00,pywws,2013-02-05 07:20:00,
2013-02-05 07:30:00,33.6,29.6,29.11,South,180,6.0,12.1,85,0.00,,,0.00,pywws,2013-02-05 07:30:00,
2013-02-05 07:40:00,33.8,29.8,29.11,WSW,248,9.8,16.8,85,0.00,,,0.00,pywws,2013-02-05 07:40:00,
2013-02-05 07:50:00,33.8,29.8,29.11,WSW,248,2.2,4.5,85,0.00,,,0.00,pywws,2013-02-05 07:50:00,
2013-02-05 08:00:00,33.8,29.8,29.11,WSW,248,3.1,5.4,85,0.00,,,0.00,pywws,2013-02-05 08:00:00,
2013-02-05 08:10:00,33.8,29.8,29.10,West,270,4.5,6.9,85,0.00,,,0.00,pywws,2013-02-05 08:10:00,
2013-02-05 08:20:00,34.0,30.0,29.10,South,180,7.6,12.1,85,0.00,,,0.00,pywws,2013-02-05 08:20:00,
2013-02-05 08:30:00,34.7,30.7,29.09,South,180,9.2,15.2,85,0.00,,,0.00,pywws,2013-02-05 08:30:00,
2013-02-05 08:40:00,35.4,31.4,29.08,South,180,6.9,12.1,85,0.00,,,0.00,pywws,2013-02-05 08:40:00,
2013-02-05 08:50:00,36.0,31.9,29.08,WSW,248,9.2,15.2,85,0.00,,,0.00,pywws,2013-02-05 08:50:00,
2013-02-05 09:02:00,36.3,32.3,29.07,NW,315,6.9,12.1,85,0.00,,,0.00,pywws,2013-02-05 09:02:00,
2013-02-05 09:10:00,36.5,32.4,29.06,WSW,248,8.3,14.5,85,0.00,,,0.00,pywws,2013-02-05 09:10:00,
2013-02-05 09:20:00,36.9,32.5,29.06,South,180,5.4,11.4,84,0.00,,,0.00,pywws,2013-02-05 09:20:00,
2013-02-05 09:30:00,37.0,32.4,29.05,West,270,9.2,15.9,83,0.00,,,0.00,pywws,2013-02-05 09:30:00,
2013-02-05 09:40:00,37.2,32.2,29.05,WSW,248,13.6,19.0,82,0.00,,,0.00,pywws,2013-02-05 09:40:00,
2013-02-05 09:50:00,37.8,32.5,29.04,South,180,12.1,22.8,81,0.00,,,0.00,pywws,2013-02-05 09:50:00,
2013-02-05 10:00:00,37.9,32.6,29.04,South,180,13.6,28.2,81,0.01,,,0.01,pywws,2013-02-05 10:00:00,
2013-02-05 10:10:00,37.9,32.6,29.03,WSW,248,13.6,20.6,81,0.01,,,0.01,pywws,2013-02-05 10:10:00,
2013-02-05 10:20:00,37.4,32.1,29.02,WSW,248,10.7,14.5,81,0.02,,,0.02,pywws,2013-02-05 10:20:00,
2013-02-05 10:30:00,37.0,31.8,29.02,WSW,248,9.8,14.5,81,0.02,,,0.02,pywws,2013-02-05 10:30:00,
2013-02-05 10:40:00,37.2,32.2,29.01,WSW,248,13.0,19.0,82,0.02,,,0.02,pywws,2013-02-05 10:40:00,
2013-02-05 10:50:00,37.4,32.7,29.01,WSW,248,9.2,13.0,83,0.02,,,0.02,pywws,2013-02-05 10:50:00,
2013-02-05 11:00:00,37.6,32.9,29.00,WSW,248,17.5,31.1,83,0.01,,,0.02,pywws,2013-02-05 11:00:00,
2013-02-05 11:10:00,37.9,33.5,29.00,WSW,248,17.5,26.0,84,0.01,,,0.02,pywws,2013-02-05 11:10:00,
2013-02-05 11:20:00,39.0,34.6,29.01,WSW,248,11.4,18.3,84,0.00,,,0.02,pywws,2013-02-05 11:20:00,
2013-02-05 11:30:00,40.3,36.1,29.01,North,0,10.7,18.3,85,0.00,,,0.02,pywws,2013-02-05 11:30:00,
2013-02-05 11:43:00,40.5,36.0,29.00,WSW,248,12.1,20.6,84,0.00,,,0.02,pywws,2013-02-05 11:43:00,
2013-02-05 11:50:00,40.1,35.7,29.00,WSW,248,9.8,15.9,84,0.00,,,0.02,pywws,2013-02-05 11:50:00,
2013-02-05 12:00:00,40.1,35.7,29.00,WSW,248,10.7,18.3,84,0.00,,,0.02,pywws,2013-02-05 12:00:00,
2013-02-05 12:10:00,40.1,35.4,29.00,WSW,248,11.4,15.2,83,0.00,,,0.02,pywws,2013-02-05 12:10:00,
2013-02-05 12:20:00,40.5,35.7,29.00,WSW,248,11.4,22.1,83,0.00,,,0.02,pywws,2013-02-05 12:20:00,
2013-02-05 12:30:00,40.6,35.9,29.00,WSW,248,6.9,16.8,83,0.00,,,0.02,pywws,2013-02-05 12:30:00,
2013-02-05 12:40:00,40.5,35.7,29.00,WSW,248,6.9,11.4,83,0.00,,,0.02,pywws,2013-02-05 12:40:00,
2013-02-05 12:50:00,40.6,35.9,29.00,NW,315,7.6,13.0,83,0.00,,,0.02,pywws,2013-02-05 12:50:00,
2013-02-05 13:00:00,41.5,37.1,29.00,WSW,248,9.2,13.0,84,0.00,,,0.02,pywws,2013-02-05 13:00:00,
2013-02-05 13:11:00,42.1,37.6,29.00,WSW,248,6.9,12.1,84,0.00,,,0.02,pywws,2013-02-05 13:11:00,
2013-02-05 13:23:00,43.2,38.7,29.00,WSW,248,8.3,16.8,84,0.00,,,0.02,pywws,2013-02-05 13:23:00,
2013-02-05 13:31:00,43.5,39.0,28.99,NW,315,6.0,9.2,84,0.00,,,0.02,pywws,2013-02-05 13:31:00,
2013-02-05 13:43:00,43.5,38.7,28.99,West,270,5.4,9.8,83,0.00,,,0.02,pywws,2013-02-05 13:43:00,
2013-02-05 13:46:00,43.9,38.7,29.01,West,270,3.1,6.9,82,0.00,,,0.02,pywws,2013-02-05 13:46:00,
2013-02-05 13:51:00,44.4,39.3,29.01,West,270,3.8,8.3,82,0.00,,,0.02,pywws,2013-02-05 13:51:00,
2013-02-05 13:56:00,44.8,39.6,29.02,NW,315,5.4,7.6,82,0.00,,,0.02,pywws,2013-02-05 13:56:00,
2013-02-05 14:01:00,45.3,40.2,29.01,WSW,248,5.4,10.7,82,0.00,,,0.02,pywws,2013-02-05 14:01:00,
2013-02-05 14:06:00,45.9,40.7,29.01,South,180,5.4,9.8,82,0.00,,,0.02,pywws,2013-02-05 14:06:00,
2013-02-05 14:11:00,46.4,41.2,29.02,WSW,248,5.4,9.2,82,0.00,,,0.02,pywws,2013-02-05 14:11:00,
2013-02-05 14:16:00,46.8,41.2,29.02,NNW,338,4.5,9.2,81,0.00,,,0.02,pywws,2013-02-05 14:16:00,
2013-02-05 14:21:00,47.3,41.4,29.02,West,270,6.9,11.4,80,0.00,,,0.02,pywws,2013-02-05 14:21:00,
2013-02-05 14:26:00,47.7,41.5,29.02,WSW,248,3.1,9.2,79,0.00,,,0.02,pywws,2013-02-05 14:26:00,
2013-02-05 14:31:00,48.0,41.5,29.03,West,270,5.4,12.1,78,0.00,,,0.02,pywws,2013-02-05 14:31:00,
2013-02-05 14:36:00,48.4,41.5,29.02,West,270,3.8,6.0,77,0.00,,,0.02,pywws,2013-02-05 14:36:00,
2013-02-05 14:39:00,45.3,40.2,29.01,WSW,248,5.4,10.7,82,0.00,,,0.02,pywws,2013-02-05 14:39:00,
2013-02-05 14:44:00,45.9,40.7,29.01,South,180,5.4,9.8,82,0.00,,,0.02,pywws,2013-02-05 14:44:00,
2013-02-05 14:49:00,46.4,41.2,29.02,WSW,248,5.4,9.2,82,0.00,,,0.02,pywws,2013-02-05 14:49:00,
2013-02-05 14:54:00,46.8,41.2,29.02,NNW,338,4.5,9.2,81,0.00,,,0.02,pywws,2013-02-05 14:54:00,
2013-02-05 14:59:00,47.3,41.4,29.02,West,270,6.9,11.4,80,0.00,,,0.02,pywws,2013-02-05 14:59:00,
2013-02-05 15:04:00,47.7,41.5,29.02,WSW,248,3.1,9.2,79,0.00,,,0.02,pywws,2013-02-05 15:04:00,
2013-02-05 15:09:00,48.0,41.5,29.03,West,270,5.4,12.1,78,0.00,,,0.02,pywws,2013-02-05 15:09:00,
2013-02-05 15:14:00,48.4,41.5,29.02,West,270,3.8,6.0,77,0.00,,,0.02,pywws,2013-02-05 15:14:00,
2013-02-05 15:19:00,48.6,41.3,29.04,South,180,4.5,6.9,76,0.00,,,0.02,pywws,2013-02-05 15:19:00,
2013-02-05 15:24:00,48.7,41.2,29.04,West,270,6.0,12.1,75,0.00,,,0.02,pywws,2013-02-05 15:24:00,
2013-02-05 15:29:00,48.7,40.8,29.05,West,270,3.1,7.6,74,0.00,,,0.02,pywws,2013-02-05 15:29:00,
2013-02-05 15:34:00,48.6,40.3,29.04,NW,315,4.5,9.2,73,0.00,,,0.02,pywws,2013-02-05 15:34:00,
2013-02-05 15:39:00,48.4,39.8,29.05,NW,315,5.4,9.2,72,0.00,,,0.02,pywws,2013-02-05 15:39:00,
2013-02-05 15:44:00,47.8,38.9,29.05,NW,315,4.5,9.2,71,0.00,,,0.02,pywws,2013-02-05 15:44:00,
2013-02-05 15:49:00,47.5,38.6,29.05,West,270,3.8,6.9,71,0.00,,,0.02,pywws,2013-02-05 15:49:00,
2013-02-05 16:00:00,46.9,37.7,29.06,NW,315,5.4,10.7,70,0.00,,,0.02,pywws,2013-02-05 16:00:00,
2013-02-05 16:10:00,46.0,36.8,29.07,West,270,3.8,8.3,70,0.00,,,0.02,pywws,2013-02-05 16:10:00,
2013-02-05 16:20:00,45.5,36.7,29.07,WSW,248,5.4,9.2,71,0.00,,,0.02,pywws,2013-02-05 16:20:00,
2013-02-05 16:30:00,45.0,36.1,29.08,South,180,3.8,6.9,71,0.00,,,0.02,pywws,2013-02-05 16:30:00,
2013-02-05 16:40:00,44.6,35.8,29.09,West,270,3.1,6.0,71,0.00,,,0.02,pywws,2013-02-05 16:40:00,
2013-02-05 16:50:00,44.2,35.8,29.10,NNW,338,3.8,8.3,72,0.00,,,0.02,pywws,2013-02-05 16:50:00,
2013-02-05 17:00:00,43.9,35.4,29.10,NW,315,3.8,8.3,72,0.00,,,0.02,pywws,2013-02-05 17:00:00,
2013-02-05 17:10:00,43.7,35.6,29.10,West,270,3.8,7.6,73,0.00,,,0.02,pywws,2013-02-05 17:10:00,
2013-02-05 17:20:00,43.5,35.4,29.11,NW,315,3.1,6.0,73,0.00,,,0.02,pywws,2013-02-05 17:20:00,
2013-02-05 17:30:00,43.2,35.1,29.12,WSW,248,3.8,6.9,73,0.00,,,0.02,pywws,2013-02-05 17:30:00,
2013-02-05 17:40:00,43.0,35.3,29.12,West,270,6.0,11.4,74,0.00,,,0.02,pywws,2013-02-05 17:40:00,
2013-02-05 17:50:00,42.8,35.1,29.13,WSW,248,3.8,7.6,74,0.00,,,0.02,pywws,2013-02-05 17:50:00,
2013-02-05 18:00:00,42.6,34.9,29.14,West,270,4.5,9.2,74,0.00,,,0.02,pywws,2013-02-05 18:00:00,
2013-02-05 18:10:00,42.4,34.7,29.14,West,270,3.8,6.9,74,0.00,,,0.02,pywws,2013-02-05 18:10:00,
2013-02-05 18:20:00,42.1,34.7,29.15,North,0,4.5,10.7,75,0.00,,,0.02,pywws,2013-02-05 18:20:00,
2013-02-05 18:30:00,42.1,34.7,29.15,NW,315,8.3,14.5,75,0.00,,,0.02,pywws,2013-02-05 18:30:00,
2013-02-05 18:40:00,42.4,35.4,29.15,West,270,6.0,15.2,76,0.00,,,0.02,pywws,2013-02-05 18:40:00,
2013-02-05 18:50:00,42.6,35.6,29.16,NW,315,6.0,11.4,76,0.00,,,0.02,pywws,2013-02-05 18:50:00,
2013-02-05 19:00:00,43.0,35.9,29.16,NW,315,7.6,12.1,76,0.00,,,0.02,pywws,2013-02-05 19:00:00,
2013-02-05 19:10:00,43.0,35.9,29.16,North,0,8.3,13.6,76,0.00,,,0.02,pywws,2013-02-05 19:10:00,
2013-02-05 19:20:00,42.8,35.8,29.18,West,270,5.4,9.8,76,0.00,,,0.02,pywws,2013-02-05 19:20:00,
2013-02-05 19:30:00,42.8,35.8,29.19,South,180,5.4,9.2,76,0.00,,,0.02,pywws,2013-02-05 19:30:00,
2013-02-05 19:40:00,42.8,35.8,29.21,West,270,5.4,8.3,76,0.00,,,0.02,pywws,2013-02-05 19:40:00,
2013-02-05 19:50:00,43.0,35.9,29.22,North,0,6.0,10.7,76,0.00,,,0.02,pywws,2013-02-05 19:50:00,
2013-02-05 20:00:00,43.2,36.1,29.23,WSW,248,3.8,6.9,76,0.00,,,0.02,pywws,2013-02-05 20:00:00,
2013-02-05 20:10:00,43.3,36.3,29.23,NE,45,6.0,12.1,76,0.00,,,0.02,pywws,2013-02-05 20:10:00,
2013-02-05 20:20:00,44.1,36.3,29.25,West,270,5.4,13.0,74,0.00,,,0.02,pywws,2013-02-05 20:20:00,
2013-02-05 20:30:00,44.4,36.7,29.26,South,180,6.9,14.5,74,0.00,,,0.02,pywws,2013-02-05 20:30:00,
2013-02-05 20:40:00,44.1,36.3,29.27,East,90,2.2,6.9,74,0.00,,,0.02,pywws,2013-02-05 20:40:00,
2013-02-05 20:50:00,43.9,36.1,29.28,North,0,3.8,10.7,74,0.00,,,0.02,pywws,2013-02-05 20:50:00,
2013-02-05 21:00:00,43.9,35.8,29.29,West,270,4.5,12.1,73,0.00,,,0.02,pywws,2013-02-05 21:00:00,
2013-02-05 21:10:00,43.9,35.8,29.30,South,180,3.8,14.5,73,0.00,,,0.02,pywws,2013-02-05 21:10:00,
2013-02-05 21:20:00,43.7,35.3,29.32,West,270,3.1,7.6,72,0.00,,,0.02,pywws,2013-02-05 21:20:00,
2013-02-05 21:30:00,43.7,35.3,29.34,WSW,248,5.4,9.8,72,0.00,,,0.02,pywws,2013-02-05 21:30:00,
2013-02-05 21:40:00,43.5,35.1,29.35,NW,315,3.8,7.6,72,0.00,,,0.02,pywws,2013-02-05 21:40:00,
2013-02-05 21:50:00,43.3,34.9,29.37,West,270,3.8,9.2,72,0.00,,,0.02,pywws,2013-02-05 21:50:00,
2013-02-05 22:00:00,43.3,34.9,29.38,North,0,6.9,19.7,72,0.00,,,0.02,pywws,2013-02-05 22:00:00,
2013-02-05 22:10:00,43.5,34.8,29.39,North,0,3.8,8.3,71,0.00,,,0.02,pywws,2013-02-05 22:10:00,
2013-02-05 22:20:00,43.5,35.1,29.40,North,0,5.4,12.1,72,0.00,,,0.02,pywws,2013-02-05 22:20:00,
2013-02-05 22:30:00,43.5,35.1,29.41,NW,315,3.8,8.3,72,0.00,,,0.02,pywws,2013-02-05 22:30:00,
2013-02-05 22:40:00,43.5,34.8,29.42,NW,315,6.0,22.8,71,0.00,,,0.02,pywws,2013-02-05 22:40:00,
2013-02-05 22:50:00,43.5,34.8,29.43,NW,315,7.6,14.5,71,0.00,,,0.02,pywws,2013-02-05 22:50:00,
2013-02-05 23:00:00,43.5,34.4,29.45,NE,45,2.2,9.8,70,0.00,,,0.02,pywws,2013-02-05 23:00:00,
2013-02-05 23:10:00,43.3,34.2,29.47,South,180,4.5,13.0,70,0.00,,,0.02,pywws,2013-02-05 23:10:00,
2013-02-05 23:20:00,43.3,34.2,29.48,NE,45,6.0,13.0,70,0.00,,,0.02,pywws,2013-02-05 23:20:00,
2013-02-05 23:30:00,43.3,34.2,29.49,WSW,248,5.4,16.8,70,0.00,,,0.02,pywws,2013-02-05 23:30:00,
2013-02-05 23:40:00,43.3,34.2,29.51,North,0,6.9,15.9,70,0.00,,,0.02,pywws,2013-02-05 23:40:00,
2013-02-05 23:50:00,43.3,33.9,29.53,North,0,3.8,8.3,69,0.00,,,0.02,pywws,2013-02-05 23:50:00,